sensor_id;sensor_type;location;lat;lon;timestamp;P1;durP1;ratioP1;P2;durP2;ratioP2
12369;SDS011;6249;52.128;9.986;2023-05-10T00:02:00;17.33;;;3.30;;
12369;SDS011;6249;52.128;9.986;2023-05-10T00:05:21;7.00;;;2.73;;
12369;SDS011;6249;52.128;9.986;2023-05-10T00:08:44;5.90;;;2.97;;
12369;SDS011;6249;52.128;9.986;2023-05-10T00:12:05;13.13;;;3.40;;
12369;SDS011;6249;52.128;9.986;2023-05-10T00:15:28;6.57;;;2.90;;
12369;SDS011;6249;52.128;9.986;2023-05-10T00:18:53;8.83;;;2.90;;
12369;SDS011;6249;52.128;9.986;2023-05-10T00:22:13;6.63;;;3.40;;
12369;SDS011;6249;52.128;9.986;2023-05-10T00:25:34;10.90;;;3.47;;
12369;SDS011;6249;52.128;9.986;2023-05-10T00:28:56;7.90;;;3.20;;
12369;SDS011;6249;52.128;9.986;2023-05-10T00:32:18;7.07;;;3.03;;
12369;SDS011;6249;52.128;9.986;2023-05-10T00:35:39;7.73;;;4.87;;
12369;SDS011;6249;52.128;9.986;2023-05-10T00:38:59;6.83;;;3.50;;
12369;SDS011;6249;52.128;9.986;2023-05-10T00:42:22;7.00;;;2.90;;
12369;SDS011;6249;52.128;9.986;2023-05-10T00:45:43;13.03;;;3.80;;
12369;SDS011;6249;52.128;9.986;2023-05-10T00:49:04;6.67;;;3.70;;
12369;SDS011;6249;52.128;9.986;2023-05-10T00:52:25;8.40;;;3.33;;
12369;SDS011;6249;52.128;9.986;2023-05-10T00:55:49;7.00;;;3.20;;
12369;SDS011;6249;52.128;9.986;2023-05-10T00:59:10;5.77;;;3.57;;
12369;SDS011;6249;52.128;9.986;2023-05-10T01:02:32;11.83;;;3.30;;
12369;SDS011;6249;52.128;9.986;2023-05-10T01:05:56;8.43;;;3.30;;
12369;SDS011;6249;52.128;9.986;2023-05-10T01:09:17;8.13;;;3.60;;
12369;SDS011;6249;52.128;9.986;2023-05-10T01:12:44;7.40;;;3.40;;
12369;SDS011;6249;52.128;9.986;2023-05-10T01:16:06;8.03;;;3.37;;
12369;SDS011;6249;52.128;9.986;2023-05-10T01:19:28;7.30;;;3.30;;
12369;SDS011;6249;52.128;9.986;2023-05-10T01:33:56;6.13;;;3.40;;
12369;SDS011;6249;52.128;9.986;2023-05-10T01:37:29;9.60;;;3.50;;
12369;SDS011;6249;52.128;9.986;2023-05-10T01:44:54;7.23;;;3.07;;
12369;SDS011;6249;52.128;9.986;2023-05-10T01:48:24;6.63;;;3.70;;
12369;SDS011;6249;52.128;9.986;2023-05-10T01:51:50;11.60;;;4.07;;
12369;SDS011;6249;52.128;9.986;2023-05-10T01:55:16;6.80;;;3.97;;
12369;SDS011;6249;52.128;9.986;2023-05-10T01:58:40;6.10;;;3.80;;
12369;SDS011;6249;52.128;9.986;2023-05-10T02:02:08;7.03;;;3.80;;
12369;SDS011;6249;52.128;9.986;2023-05-10T02:05:32;7.00;;;4.20;;
12369;SDS011;6249;52.128;9.986;2023-05-10T02:08:54;6.00;;;3.43;;
12369;SDS011;6249;52.128;9.986;2023-05-10T02:12:15;6.60;;;3.90;;
12369;SDS011;6249;52.128;9.986;2023-05-10T02:15:39;6.07;;;3.67;;
12369;SDS011;6249;52.128;9.986;2023-05-10T02:19:01;11.97;;;4.77;;
12369;SDS011;6249;52.128;9.986;2023-05-10T02:22:23;12.57;;;4.67;;
12369;SDS011;6249;52.128;9.986;2023-05-10T02:25:48;6.60;;;3.20;;
12369;SDS011;6249;52.128;9.986;2023-05-10T02:29:13;8.33;;;3.53;;
12369;SDS011;6249;52.128;9.986;2023-05-10T02:32:35;8.83;;;4.27;;
12369;SDS011;6249;52.128;9.986;2023-05-10T02:35:57;10.43;;;4.13;;
12369;SDS011;6249;52.128;9.986;2023-05-10T02:39:19;7.50;;;4.07;;
12369;SDS011;6249;52.128;9.986;2023-05-10T02:42:43;6.30;;;4.20;;
12369;SDS011;6249;52.128;9.986;2023-05-10T02:46:05;10.43;;;3.60;;
12369;SDS011;6249;52.128;9.986;2023-05-10T02:49:26;6.73;;;3.60;;
12369;SDS011;6249;52.128;9.986;2023-05-10T02:52:47;6.80;;;4.20;;
12369;SDS011;6249;52.128;9.986;2023-05-10T02:56:15;7.67;;;4.03;;
12369;SDS011;6249;52.128;9.986;2023-05-10T02:59:59;5.80;;;3.53;;
12369;SDS011;6249;52.128;9.986;2023-05-10T03:03:21;8.53;;;3.83;;
12369;SDS011;6249;52.128;9.986;2023-05-10T03:06:42;11.33;;;4.00;;
12369;SDS011;6249;52.128;9.986;2023-05-10T03:10:05;8.80;;;4.20;;
12369;SDS011;6249;52.128;9.986;2023-05-10T03:13:32;5.70;;;4.00;;
12369;SDS011;6249;52.128;9.986;2023-05-10T03:17:15;6.30;;;3.40;;
12369;SDS011;6249;52.128;9.986;2023-05-10T03:20:42;7.80;;;3.50;;
12369;SDS011;6249;52.128;9.986;2023-05-10T03:24:07;11.00;;;4.03;;
12369;SDS011;6249;52.128;9.986;2023-05-10T03:27:39;6.67;;;4.07;;
12369;SDS011;6249;52.128;9.986;2023-05-10T03:31:04;9.77;;;4.23;;
12369;SDS011;6249;52.128;9.986;2023-05-10T03:34:26;7.43;;;3.80;;
12369;SDS011;6249;52.128;9.986;2023-05-10T03:37:49;10.17;;;4.83;;
12369;SDS011;6249;52.128;9.986;2023-05-10T03:41:10;7.53;;;4.93;;
12369;SDS011;6249;52.128;9.986;2023-05-10T03:44:33;9.17;;;5.33;;
12369;SDS011;6249;52.128;9.986;2023-05-10T03:47:57;8.40;;;4.70;;
12369;SDS011;6249;52.128;9.986;2023-05-10T03:51:19;9.27;;;4.77;;
12369;SDS011;6249;52.128;9.986;2023-05-10T03:54:40;10.83;;;5.00;;
12369;SDS011;6249;52.128;9.986;2023-05-10T03:58:03;6.30;;;4.50;;
12369;SDS011;6249;52.128;9.986;2023-05-10T04:01:24;9.30;;;5.27;;
12369;SDS011;6249;52.128;9.986;2023-05-10T04:04:46;11.23;;;6.10;;
12369;SDS011;6249;52.128;9.986;2023-05-10T04:08:08;9.63;;;5.17;;
12369;SDS011;6249;52.128;9.986;2023-05-10T04:11:28;7.27;;;4.93;;
12369;SDS011;6249;52.128;9.986;2023-05-10T04:14:49;8.60;;;5.60;;
12369;SDS011;6249;52.128;9.986;2023-05-10T04:18:12;10.40;;;5.40;;
12369;SDS011;6249;52.128;9.986;2023-05-10T04:21:32;9.10;;;6.10;;
12369;SDS011;6249;52.128;9.986;2023-05-10T04:24:53;6.80;;;4.83;;
12369;SDS011;6249;52.128;9.986;2023-05-10T04:28:16;8.73;;;5.47;;
12369;SDS011;6249;52.128;9.986;2023-05-10T04:31:36;7.77;;;4.60;;
12369;SDS011;6249;52.128;9.986;2023-05-10T04:34:57;7.70;;;4.70;;
12369;SDS011;6249;52.128;9.986;2023-05-10T04:38:17;6.40;;;3.90;;
12369;SDS011;6249;52.128;9.986;2023-05-10T04:41:40;9.50;;;4.40;;
12369;SDS011;6249;52.128;9.986;2023-05-10T04:45:01;8.20;;;3.77;;
12369;SDS011;6249;52.128;9.986;2023-05-10T04:48:21;6.90;;;4.40;;
12369;SDS011;6249;52.128;9.986;2023-05-10T04:51:42;9.07;;;4.67;;
12369;SDS011;6249;52.128;9.986;2023-05-10T04:55:02;8.23;;;3.83;;
12369;SDS011;6249;52.128;9.986;2023-05-10T04:58:27;7.20;;;4.13;;
12369;SDS011;6249;52.128;9.986;2023-05-10T05:01:50;6.43;;;4.23;;
12369;SDS011;6249;52.128;9.986;2023-05-10T05:05:13;10.20;;;5.23;;
12369;SDS011;6249;52.128;9.986;2023-05-10T05:08:36;8.67;;;4.50;;
12369;SDS011;6249;52.128;9.986;2023-05-10T05:11:56;10.37;;;4.97;;
12369;SDS011;6249;52.128;9.986;2023-05-10T05:15:17;7.50;;;4.80;;
12369;SDS011;6249;52.128;9.986;2023-05-10T05:18:37;8.60;;;4.80;;
12369;SDS011;6249;52.128;9.986;2023-05-10T05:21:58;8.40;;;5.57;;
12369;SDS011;6249;52.128;9.986;2023-05-10T05:25:18;13.63;;;5.53;;
12369;SDS011;6249;52.128;9.986;2023-05-10T05:28:41;11.67;;;6.60;;
12369;SDS011;6249;52.128;9.986;2023-05-10T05:32:02;12.07;;;5.73;;
12369;SDS011;6249;52.128;9.986;2023-05-10T05:35:23;11.73;;;6.80;;
12369;SDS011;6249;52.128;9.986;2023-05-10T05:38:46;10.80;;;6.60;;
12369;SDS011;6249;52.128;9.986;2023-05-10T05:42:08;9.10;;;6.23;;
12369;SDS011;6249;52.128;9.986;2023-05-10T05:45:31;12.40;;;6.83;;
12369;SDS011;6249;52.128;9.986;2023-05-10T05:48:54;10.97;;;6.33;;
12369;SDS011;6249;52.128;9.986;2023-05-10T05:52:17;8.60;;;6.40;;
12369;SDS011;6249;52.128;9.986;2023-05-10T05:55:38;11.10;;;5.77;;
12369;SDS011;6249;52.128;9.986;2023-05-10T05:58:58;10.77;;;6.73;;
12369;SDS011;6249;52.128;9.986;2023-05-10T06:02:19;9.67;;;7.10;;
12369;SDS011;6249;52.128;9.986;2023-05-10T06:05:39;10.40;;;5.93;;
12369;SDS011;6249;52.128;9.986;2023-05-10T06:09:00;9.87;;;6.30;;
12369;SDS011;6249;52.128;9.986;2023-05-10T06:12:20;10.80;;;7.60;;
12369;SDS011;6249;52.128;9.986;2023-05-10T06:15:41;13.57;;;7.33;;
12369;SDS011;6249;52.128;9.986;2023-05-10T06:19:02;10.77;;;8.13;;
12369;SDS011;6249;52.128;9.986;2023-05-10T06:22:23;9.30;;;7.63;;
12369;SDS011;6249;52.128;9.986;2023-05-10T06:25:43;10.90;;;6.47;;
12369;SDS011;6249;52.128;9.986;2023-05-10T06:29:04;8.97;;;6.00;;
12369;SDS011;6249;52.128;9.986;2023-05-10T06:32:27;11.30;;;7.23;;
12369;SDS011;6249;52.128;9.986;2023-05-10T06:35:48;12.37;;;7.80;;
12369;SDS011;6249;52.128;9.986;2023-05-10T06:39:08;11.37;;;7.37;;
12369;SDS011;6249;52.128;9.986;2023-05-10T06:42:31;9.90;;;6.80;;
12369;SDS011;6249;52.128;9.986;2023-05-10T06:45:52;11.90;;;6.60;;
12369;SDS011;6249;52.128;9.986;2023-05-10T06:49:12;14.43;;;8.60;;
12369;SDS011;6249;52.128;9.986;2023-05-10T06:52:35;8.60;;;6.50;;
12369;SDS011;6249;52.128;9.986;2023-05-10T06:55:58;10.50;;;7.23;;
12369;SDS011;6249;52.128;9.986;2023-05-10T06:59:19;10.83;;;8.20;;
12369;SDS011;6249;52.128;9.986;2023-05-10T07:02:42;14.70;;;8.10;;
12369;SDS011;6249;52.128;9.986;2023-05-10T07:06:02;10.70;;;7.03;;
12369;SDS011;6249;52.128;9.986;2023-05-10T07:09:24;9.93;;;7.77;;
12369;SDS011;6249;52.128;9.986;2023-05-10T07:12:47;8.80;;;6.30;;
12369;SDS011;6249;52.128;9.986;2023-05-10T07:16:10;10.20;;;6.90;;
12369;SDS011;6249;52.128;9.986;2023-05-10T07:19:31;8.57;;;5.67;;
12369;SDS011;6249;52.128;9.986;2023-05-10T07:22:52;11.37;;;7.53;;
12369;SDS011;6249;52.128;9.986;2023-05-10T07:26:15;14.93;;;7.50;;
12369;SDS011;6249;52.128;9.986;2023-05-10T07:29:36;8.33;;;5.63;;
12369;SDS011;6249;52.128;9.986;2023-05-10T07:32:57;9.07;;;6.40;;
12369;SDS011;6249;52.128;9.986;2023-05-10T07:36:18;10.87;;;6.40;;
12369;SDS011;6249;52.128;9.986;2023-05-10T07:39:39;8.83;;;6.50;;
12369;SDS011;6249;52.128;9.986;2023-05-10T07:43:00;8.33;;;6.53;;
12369;SDS011;6249;52.128;9.986;2023-05-10T07:46:21;7.77;;;5.33;;
12369;SDS011;6249;52.128;9.986;2023-05-10T07:49:42;9.50;;;6.50;;
12369;SDS011;6249;52.128;9.986;2023-05-10T07:53:03;13.57;;;6.63;;
12369;SDS011;6249;52.128;9.986;2023-05-10T07:59:49;9.53;;;6.37;;
12369;SDS011;6249;52.128;9.986;2023-05-10T08:03:10;7.27;;;5.30;;
12369;SDS011;6249;52.128;9.986;2023-05-10T08:06:32;6.50;;;5.03;;
12369;SDS011;6249;52.128;9.986;2023-05-10T08:09:55;6.37;;;4.83;;
12369;SDS011;6249;52.128;9.986;2023-05-10T08:13:16;6.40;;;4.00;;
12369;SDS011;6249;52.128;9.986;2023-05-10T08:16:39;6.40;;;3.20;;
12369;SDS011;6249;52.128;9.986;2023-05-10T08:20:00;3.43;;;2.20;;
12369;SDS011;6249;52.128;9.986;2023-05-10T08:23:23;3.63;;;2.23;;
12369;SDS011;6249;52.128;9.986;2023-05-10T08:26:45;4.80;;;2.50;;
12369;SDS011;6249;52.128;9.986;2023-05-10T08:30:07;3.40;;;1.70;;
12369;SDS011;6249;52.128;9.986;2023-05-10T08:33:28;3.87;;;1.80;;
12369;SDS011;6249;52.128;9.986;2023-05-10T08:36:49;3.70;;;1.93;;
12369;SDS011;6249;52.128;9.986;2023-05-10T08:40:12;2.63;;;1.60;;
12369;SDS011;6249;52.128;9.986;2023-05-10T08:43:35;5.27;;;1.90;;
12369;SDS011;6249;52.128;9.986;2023-05-10T08:46:56;2.67;;;1.37;;
12369;SDS011;6249;52.128;9.986;2023-05-10T08:50:21;2.90;;;1.50;;
12369;SDS011;6249;52.128;9.986;2023-05-10T08:53:42;3.67;;;1.90;;
12369;SDS011;6249;52.128;9.986;2023-05-10T08:57:06;6.10;;;1.50;;
12369;SDS011;6249;52.128;9.986;2023-05-10T09:00:27;6.33;;;1.57;;
12369;SDS011;6249;52.128;9.986;2023-05-10T09:03:48;2.37;;;1.40;;
12369;SDS011;6249;52.128;9.986;2023-05-10T09:07:10;2.50;;;1.00;;
12369;SDS011;6249;52.128;9.986;2023-05-10T09:10:31;3.83;;;0.93;;
12369;SDS011;6249;52.128;9.986;2023-05-10T09:13:54;2.13;;;1.00;;
12369;SDS011;6249;52.128;9.986;2023-05-10T09:17:16;2.10;;;0.93;;
12369;SDS011;6249;52.128;9.986;2023-05-10T09:20:36;3.30;;;1.10;;
12369;SDS011;6249;52.128;9.986;2023-05-10T09:23:57;3.10;;;0.73;;
12369;SDS011;6249;52.128;9.986;2023-05-10T09:27:26;1.70;;;0.50;;
12369;SDS011;6249;52.128;9.986;2023-05-10T09:30:54;2.93;;;0.50;;
12369;SDS011;6249;52.128;9.986;2023-05-10T09:34:16;1.57;;;0.40;;
12369;SDS011;6249;52.128;9.986;2023-05-10T09:37:49;2.33;;;0.60;;
12369;SDS011;6249;52.128;9.986;2023-05-10T09:41:18;1.77;;;0.70;;
12369;SDS011;6249;52.128;9.986;2023-05-10T09:44:41;2.43;;;0.70;;
12369;SDS011;6249;52.128;9.986;2023-05-10T09:48:05;1.60;;;0.50;;
12369;SDS011;6249;52.128;9.986;2023-05-10T09:51:26;2.07;;;0.60;;
12369;SDS011;6249;52.128;9.986;2023-05-10T09:54:52;1.90;;;0.60;;
12369;SDS011;6249;52.128;9.986;2023-05-10T09:58:13;6.90;;;0.60;;
12369;SDS011;6249;52.128;9.986;2023-05-10T10:01:34;1.60;;;0.60;;
12369;SDS011;6249;52.128;9.986;2023-05-10T10:04:55;2.57;;;0.70;;
12369;SDS011;6249;52.128;9.986;2023-05-10T10:08:23;3.70;;;0.80;;
12369;SDS011;6249;52.128;9.986;2023-05-10T10:11:45;2.03;;;0.67;;
12369;SDS011;6249;52.128;9.986;2023-05-10T10:15:06;2.37;;;1.17;;
12369;SDS011;6249;52.128;9.986;2023-05-10T10:18:28;2.00;;;0.70;;
12369;SDS011;6249;52.128;9.986;2023-05-10T10:21:51;2.47;;;0.80;;
12369;SDS011;6249;52.128;9.986;2023-05-10T10:25:15;2.87;;;0.97;;
12369;SDS011;6249;52.128;9.986;2023-05-10T10:32:25;2.17;;;1.00;;
12369;SDS011;6249;52.128;9.986;2023-05-10T10:35:50;3.23;;;1.00;;
12369;SDS011;6249;52.128;9.986;2023-05-10T10:39:13;4.13;;;1.10;;
12369;SDS011;6249;52.128;9.986;2023-05-10T10:42:43;3.67;;;1.40;;
12369;SDS011;6249;52.128;9.986;2023-05-10T10:49:42;3.00;;;1.40;;
12369;SDS011;6249;52.128;9.986;2023-05-10T10:53:14;2.20;;;1.20;;
12369;SDS011;6249;52.128;9.986;2023-05-10T10:56:35;5.63;;;2.30;;
12369;SDS011;6249;52.128;9.986;2023-05-10T11:03:38;5.20;;;1.77;;
12369;SDS011;6249;52.128;9.986;2023-05-10T11:07:33;3.73;;;1.50;;
12369;SDS011;6249;52.128;9.986;2023-05-10T11:10:53;2.77;;;1.33;;
12369;SDS011;6249;52.128;9.986;2023-05-10T11:14:18;4.23;;;1.47;;
12369;SDS011;6249;52.128;9.986;2023-05-10T11:17:41;6.00;;;2.30;;
12369;SDS011;6249;52.128;9.986;2023-05-10T11:21:08;6.13;;;1.83;;
12369;SDS011;6249;52.128;9.986;2023-05-10T11:24:33;6.30;;;2.50;;
12369;SDS011;6249;52.128;9.986;2023-05-10T11:27:55;5.30;;;1.50;;
12369;SDS011;6249;52.128;9.986;2023-05-10T11:31:17;4.87;;;2.13;;
12369;SDS011;6249;52.128;9.986;2023-05-10T11:34:40;7.83;;;1.90;;
12369;SDS011;6249;52.128;9.986;2023-05-10T11:38:00;5.30;;;1.80;;
12369;SDS011;6249;52.128;9.986;2023-05-10T11:41:22;5.07;;;1.90;;
12369;SDS011;6249;52.128;9.986;2023-05-10T11:44:45;11.93;;;2.23;;
12369;SDS011;6249;52.128;9.986;2023-05-10T11:48:06;3.80;;;1.70;;
12369;SDS011;6249;52.128;9.986;2023-05-10T11:51:32;5.50;;;1.60;;
12369;SDS011;6249;52.128;9.986;2023-05-10T11:54:57;5.07;;;1.80;;
12369;SDS011;6249;52.128;9.986;2023-05-10T11:58:20;7.07;;;1.67;;
12369;SDS011;6249;52.128;9.986;2023-05-10T12:01:42;3.57;;;1.40;;
12369;SDS011;6249;52.128;9.986;2023-05-10T12:05:03;9.80;;;1.63;;
12369;SDS011;6249;52.128;9.986;2023-05-10T12:08:26;4.53;;;1.40;;
12369;SDS011;6249;52.128;9.986;2023-05-10T12:11:48;3.40;;;1.47;;
12369;SDS011;6249;52.128;9.986;2023-05-10T12:15:12;5.83;;;1.70;;
12369;SDS011;6249;52.128;9.986;2023-05-10T12:18:42;3.63;;;1.90;;
12369;SDS011;6249;52.128;9.986;2023-05-10T12:22:04;7.50;;;1.57;;
12369;SDS011;6249;52.128;9.986;2023-05-10T12:25:29;5.90;;;1.30;;
12369;SDS011;6249;52.128;9.986;2023-05-10T12:28:53;3.20;;;1.30;;
12369;SDS011;6249;52.128;9.986;2023-05-10T12:32:15;3.90;;;1.43;;
12369;SDS011;6249;52.128;9.986;2023-05-10T12:35:45;2.70;;;1.23;;
12369;SDS011;6249;52.128;9.986;2023-05-10T12:39:10;6.00;;;1.80;;
12369;SDS011;6249;52.128;9.986;2023-05-10T12:42:31;4.57;;;1.93;;
12369;SDS011;6249;52.128;9.986;2023-05-10T12:45:55;5.00;;;2.20;;
12369;SDS011;6249;52.128;9.986;2023-05-10T12:49:19;5.90;;;3.07;;
12369;SDS011;6249;52.128;9.986;2023-05-10T12:52:42;4.83;;;2.17;;
12369;SDS011;6249;52.128;9.986;2023-05-10T12:56:02;4.03;;;1.30;;
12369;SDS011;6249;52.128;9.986;2023-05-10T12:59:28;2.73;;;1.43;;
12369;SDS011;6249;52.128;9.986;2023-05-10T13:02:48;3.43;;;1.30;;
12369;SDS011;6249;52.128;9.986;2023-05-10T13:06:12;3.67;;;1.47;;
12369;SDS011;6249;52.128;9.986;2023-05-10T13:09:36;2.70;;;1.07;;
12369;SDS011;6249;52.128;9.986;2023-05-10T13:12:59;6.50;;;1.47;;
12369;SDS011;6249;52.128;9.986;2023-05-10T13:16:25;3.63;;;1.63;;
12369;SDS011;6249;52.128;9.986;2023-05-10T13:19:45;3.30;;;1.43;;
12369;SDS011;6249;52.128;9.986;2023-05-10T13:23:08;3.40;;;1.40;;
12369;SDS011;6249;52.128;9.986;2023-05-10T13:26:31;4.47;;;1.10;;
12369;SDS011;6249;52.128;9.986;2023-05-10T13:29:52;3.10;;;1.40;;
12369;SDS011;6249;52.128;9.986;2023-05-10T13:33:13;3.10;;;1.50;;
12369;SDS011;6249;52.128;9.986;2023-05-10T13:36:33;5.37;;;1.77;;
12369;SDS011;6249;52.128;9.986;2023-05-10T13:39:56;2.50;;;1.20;;
12369;SDS011;6249;52.128;9.986;2023-05-10T13:43:20;2.83;;;1.20;;
12369;SDS011;6249;52.128;9.986;2023-05-10T13:46:43;5.60;;;1.40;;
12369;SDS011;6249;52.128;9.986;2023-05-10T13:50:06;2.60;;;1.20;;
12369;SDS011;6249;52.128;9.986;2023-05-10T13:53:29;2.90;;;1.50;;
12369;SDS011;6249;52.128;9.986;2023-05-10T13:56:50;4.47;;;1.80;;
12369;SDS011;6249;52.128;9.986;2023-05-10T14:00:11;4.80;;;1.47;;
12369;SDS011;6249;52.128;9.986;2023-05-10T14:03:35;3.90;;;1.60;;
12369;SDS011;6249;52.128;9.986;2023-05-10T14:06:58;4.20;;;1.70;;
12369;SDS011;6249;52.128;9.986;2023-05-10T14:10:18;4.87;;;1.53;;
12369;SDS011;6249;52.128;9.986;2023-05-10T14:13:44;3.00;;;1.27;;
12369;SDS011;6249;52.128;9.986;2023-05-10T14:17:09;2.70;;;1.23;;
12369;SDS011;6249;52.128;9.986;2023-05-10T14:20:30;3.63;;;1.53;;
12369;SDS011;6249;52.128;9.986;2023-05-10T14:23:55;3.73;;;1.47;;
12369;SDS011;6249;52.128;9.986;2023-05-10T14:27:16;3.57;;;1.83;;
12369;SDS011;6249;52.128;9.986;2023-05-10T14:30:37;3.33;;;1.60;;
12369;SDS011;6249;52.128;9.986;2023-05-10T14:34:00;3.67;;;1.60;;
12369;SDS011;6249;52.128;9.986;2023-05-10T14:37:23;3.13;;;1.30;;
12369;SDS011;6249;52.128;9.986;2023-05-10T14:40:46;5.03;;;1.50;;
12369;SDS011;6249;52.128;9.986;2023-05-10T14:44:06;4.97;;;1.77;;
12369;SDS011;6249;52.128;9.986;2023-05-10T14:47:30;3.60;;;1.30;;
12369;SDS011;6249;52.128;9.986;2023-05-10T14:50:50;2.97;;;1.50;;
12369;SDS011;6249;52.128;9.986;2023-05-10T14:54:12;3.23;;;1.20;;
12369;SDS011;6249;52.128;9.986;2023-05-10T14:57:33;3.13;;;1.43;;
12369;SDS011;6249;52.128;9.986;2023-05-10T15:00:53;3.40;;;1.70;;
12369;SDS011;6249;52.128;9.986;2023-05-10T15:04:14;3.63;;;1.93;;
12369;SDS011;6249;52.128;9.986;2023-05-10T15:07:36;5.60;;;1.90;;
12369;SDS011;6249;52.128;9.986;2023-05-10T15:10:59;7.53;;;2.93;;
12369;SDS011;6249;52.128;9.986;2023-05-10T15:14:19;3.20;;;1.70;;
12369;SDS011;6249;52.128;9.986;2023-05-10T15:17:40;4.20;;;2.40;;
12369;SDS011;6249;52.128;9.986;2023-05-10T15:21:01;4.20;;;2.23;;
12369;SDS011;6249;52.128;9.986;2023-05-10T15:24:23;5.73;;;2.30;;
12369;SDS011;6249;52.128;9.986;2023-05-10T15:27:44;7.40;;;2.70;;
12369;SDS011;6249;52.128;9.986;2023-05-10T15:31:05;7.40;;;2.27;;
12369;SDS011;6249;52.128;9.986;2023-05-10T15:34:25;6.53;;;2.63;;
12369;SDS011;6249;52.128;9.986;2023-05-10T15:37:47;7.27;;;2.50;;
12369;SDS011;6249;52.128;9.986;2023-05-10T15:41:08;3.80;;;1.93;;
12369;SDS011;6249;52.128;9.986;2023-05-10T15:44:29;6.67;;;2.73;;
12369;SDS011;6249;52.128;9.986;2023-05-10T15:47:49;7.47;;;2.40;;
12369;SDS011;6249;52.128;9.986;2023-05-10T15:51:12;5.77;;;2.67;;
12369;SDS011;6249;52.128;9.986;2023-05-10T15:54:35;6.67;;;2.17;;
12369;SDS011;6249;52.128;9.986;2023-05-10T15:57:56;4.50;;;2.40;;
12369;SDS011;6249;52.128;9.986;2023-05-10T16:01:16;5.70;;;2.50;;
12369;SDS011;6249;52.128;9.986;2023-05-10T16:04:37;5.43;;;3.03;;
12369;SDS011;6249;52.128;9.986;2023-05-10T16:08:00;6.07;;;2.70;;
12369;SDS011;6249;52.128;9.986;2023-05-10T16:11:21;8.20;;;3.60;;
12369;SDS011;6249;52.128;9.986;2023-05-10T16:14:45;8.33;;;3.00;;
12369;SDS011;6249;52.128;9.986;2023-05-10T16:18:06;6.63;;;2.93;;
12369;SDS011;6249;52.128;9.986;2023-05-10T16:21:26;4.57;;;2.50;;
12369;SDS011;6249;52.128;9.986;2023-05-10T16:24:49;21.93;;;4.40;;
12369;SDS011;6249;52.128;9.986;2023-05-10T16:28:12;26.30;;;7.83;;
12369;SDS011;6249;52.128;9.986;2023-05-10T16:31:33;22.07;;;10.00;;
12369;SDS011;6249;52.128;9.986;2023-05-10T16:34:53;28.53;;;13.80;;
12369;SDS011;6249;52.128;9.986;2023-05-10T16:38:20;38.40;;;16.60;;
12369;SDS011;6249;52.128;9.986;2023-05-10T16:41:40;23.73;;;11.00;;
12369;SDS011;6249;52.128;9.986;2023-05-10T16:45:01;14.80;;;7.93;;
12369;SDS011;6249;52.128;9.986;2023-05-10T16:48:26;25.43;;;10.47;;
12369;SDS011;6249;52.128;9.986;2023-05-10T16:51:47;17.23;;;9.10;;
12369;SDS011;6249;52.128;9.986;2023-05-10T16:55:07;33.93;;;14.90;;
12369;SDS011;6249;52.128;9.986;2023-05-10T16:58:33;24.93;;;12.50;;
12369;SDS011;6249;52.128;9.986;2023-05-10T17:01:55;16.07;;;8.10;;
12369;SDS011;6249;52.128;9.986;2023-05-10T17:05:16;16.77;;;8.57;;
12369;SDS011;6249;52.128;9.986;2023-05-10T17:08:39;15.43;;;8.07;;
12369;SDS011;6249;52.128;9.986;2023-05-10T17:11:59;18.53;;;8.57;;
12369;SDS011;6249;52.128;9.986;2023-05-10T17:15:24;15.87;;;8.13;;
12369;SDS011;6249;52.128;9.986;2023-05-10T17:18:47;18.20;;;8.87;;
12369;SDS011;6249;52.128;9.986;2023-05-10T17:22:13;17.30;;;8.33;;
12369;SDS011;6249;52.128;9.986;2023-05-10T17:25:34;13.10;;;5.30;;
12369;SDS011;6249;52.128;9.986;2023-05-10T17:28:55;8.97;;;4.53;;
12369;SDS011;6249;52.128;9.986;2023-05-10T17:32:16;10.80;;;4.87;;
12369;SDS011;6249;52.128;9.986;2023-05-10T17:35:38;10.07;;;4.40;;
12369;SDS011;6249;52.128;9.986;2023-05-10T17:38:59;9.30;;;4.10;;
12369;SDS011;6249;52.128;9.986;2023-05-10T17:42:20;6.00;;;3.30;;
12369;SDS011;6249;52.128;9.986;2023-05-10T17:45:40;6.73;;;4.33;;
12369;SDS011;6249;52.128;9.986;2023-05-10T17:49:01;4.90;;;3.00;;
12369;SDS011;6249;52.128;9.986;2023-05-10T17:52:24;5.83;;;2.80;;
12369;SDS011;6249;52.128;9.986;2023-05-10T17:55:44;7.60;;;4.10;;
12369;SDS011;6249;52.128;9.986;2023-05-10T17:59:07;11.40;;;5.93;;
12369;SDS011;6249;52.128;9.986;2023-05-10T18:02:28;11.17;;;6.33;;
12369;SDS011;6249;52.128;9.986;2023-05-10T18:05:48;12.53;;;6.67;;
12369;SDS011;6249;52.128;9.986;2023-05-10T18:09:09;12.70;;;6.93;;
12369;SDS011;6249;52.128;9.986;2023-05-10T18:12:30;10.93;;;7.27;;
12369;SDS011;6249;52.128;9.986;2023-05-10T18:15:51;11.03;;;6.60;;
12369;SDS011;6249;52.128;9.986;2023-05-10T18:19:12;13.43;;;6.10;;
12369;SDS011;6249;52.128;9.986;2023-05-10T18:22:35;7.20;;;4.83;;
12369;SDS011;6249;52.128;9.986;2023-05-10T18:25:56;7.80;;;5.10;;
12369;SDS011;6249;52.128;9.986;2023-05-10T18:29:16;10.93;;;6.47;;
12369;SDS011;6249;52.128;9.986;2023-05-10T18:32:37;13.00;;;8.23;;
12369;SDS011;6249;52.128;9.986;2023-05-10T18:35:58;15.63;;;8.53;;
12369;SDS011;6249;52.128;9.986;2023-05-10T18:39:19;14.90;;;8.27;;
12369;SDS011;6249;52.128;9.986;2023-05-10T18:42:43;13.60;;;7.90;;
12369;SDS011;6249;52.128;9.986;2023-05-10T18:46:05;8.37;;;5.57;;
12369;SDS011;6249;52.128;9.986;2023-05-10T18:49:28;7.80;;;5.00;;
12369;SDS011;6249;52.128;9.986;2023-05-10T18:52:53;9.50;;;6.30;;
12369;SDS011;6249;52.128;9.986;2023-05-10T18:56:15;12.73;;;6.20;;
12369;SDS011;6249;52.128;9.986;2023-05-10T18:59:38;13.97;;;7.23;;
12369;SDS011;6249;52.128;9.986;2023-05-10T19:02:59;11.13;;;5.80;;
12369;SDS011;6249;52.128;9.986;2023-05-10T19:06:19;7.23;;;4.77;;
12369;SDS011;6249;52.128;9.986;2023-05-10T19:09:42;9.20;;;3.90;;
12369;SDS011;6249;52.128;9.986;2023-05-10T19:13:05;8.40;;;3.73;;
12369;SDS011;6249;52.128;9.986;2023-05-10T19:16:26;6.30;;;3.80;;
12369;SDS011;6249;52.128;9.986;2023-05-10T19:19:48;8.50;;;4.97;;
12369;SDS011;6249;52.128;9.986;2023-05-10T19:23:09;7.63;;;3.93;;
12369;SDS011;6249;52.128;9.986;2023-05-10T19:26:29;6.60;;;3.50;;
12369;SDS011;6249;52.128;9.986;2023-05-10T19:29:50;9.03;;;3.47;;
12369;SDS011;6249;52.128;9.986;2023-05-10T19:33:11;5.40;;;3.27;;
12369;SDS011;6249;52.128;9.986;2023-05-10T19:36:32;6.90;;;2.80;;
12369;SDS011;6249;52.128;9.986;2023-05-10T19:39:55;6.47;;;3.23;;
12369;SDS011;6249;52.128;9.986;2023-05-10T19:43:16;6.67;;;4.00;;
12369;SDS011;6249;52.128;9.986;2023-05-10T19:46:39;6.83;;;4.27;;
12369;SDS011;6249;52.128;9.986;2023-05-10T19:50:01;7.17;;;4.47;;
12369;SDS011;6249;52.128;9.986;2023-05-10T19:53:21;9.40;;;4.40;;
12369;SDS011;6249;52.128;9.986;2023-05-10T19:56:42;10.10;;;4.63;;
12369;SDS011;6249;52.128;9.986;2023-05-10T20:00:03;7.13;;;4.33;;
12369;SDS011;6249;52.128;9.986;2023-05-10T20:03:24;6.70;;;4.57;;
12369;SDS011;6249;52.128;9.986;2023-05-10T20:06:44;10.93;;;4.17;;
12369;SDS011;6249;52.128;9.986;2023-05-10T20:10:05;9.30;;;5.13;;
12369;SDS011;6249;52.128;9.986;2023-05-10T20:13:29;8.50;;;4.50;;
12369;SDS011;6249;52.128;9.986;2023-05-10T20:16:52;9.00;;;5.37;;
12369;SDS011;6249;52.128;9.986;2023-05-10T20:20:13;6.63;;;4.70;;
12369;SDS011;6249;52.128;9.986;2023-05-10T20:23:36;10.03;;;5.23;;
12369;SDS011;6249;52.128;9.986;2023-05-10T20:26:57;10.07;;;6.43;;
12369;SDS011;6249;52.128;9.986;2023-05-10T20:30:21;6.33;;;4.40;;
12369;SDS011;6249;52.128;9.986;2023-05-10T20:33:46;12.27;;;6.50;;
12369;SDS011;6249;52.128;9.986;2023-05-10T20:37:07;8.87;;;5.30;;
12369;SDS011;6249;52.128;9.986;2023-05-10T20:40:27;7.60;;;5.30;;
12369;SDS011;6249;52.128;9.986;2023-05-10T20:43:50;9.37;;;6.40;;
12369;SDS011;6249;52.128;9.986;2023-05-10T20:47:16;9.53;;;5.83;;
12369;SDS011;6249;52.128;9.986;2023-05-10T20:50:37;7.53;;;5.23;;
12369;SDS011;6249;52.128;9.986;2023-05-10T20:53:57;8.57;;;5.33;;
12369;SDS011;6249;52.128;9.986;2023-05-10T20:57:20;11.67;;;5.17;;
12369;SDS011;6249;52.128;9.986;2023-05-10T21:00:43;7.97;;;4.47;;
12369;SDS011;6249;52.128;9.986;2023-05-10T21:04:03;7.53;;;5.00;;